createdAt,value
2023-01-21T00:02:09.381Z,75.26
2023-01-21T00:04:39.429Z,75.43
2023-01-21T00:07:08.582Z,75.38
2023-01-21T00:09:37.010Z,75.14
2023-01-21T00:12:05.891Z,75.08
2023-01-21T00:14:34.283Z,74.91
2023-01-21T00:17:02.672Z,74.39
2023-01-21T00:19:33.564Z,75.06
2023-01-21T00:22:03.398Z,74.07
2023-01-21T00:24:31.719Z,74.48
2023-01-21T00:27:00.047Z,73.91
2023-01-21T00:29:30.831Z,74.24
2023-01-21T00:31:59.170Z,74.12
2023-01-21T00:34:27.562Z,74.13
2023-01-21T00:36:56.646Z,73.98
2023-01-21T00:39:26.406Z,73.48
2023-01-21T00:41:54.869Z,73.65
2023-01-21T00:44:23.321Z,73.84
2023-01-21T00:46:51.657Z,73.33
2023-01-21T00:49:20.003Z,73.18
2023-01-21T00:51:48.301Z,73.53
2023-01-21T00:54:16.628Z,72.92
2023-01-21T00:56:46.315Z,72.73
2023-01-21T00:59:14.735Z,73.54
2023-01-21T01:01:43.510Z,73.07
2023-01-21T01:04:12.314Z,72.55
2023-01-21T01:06:40.686Z,72.52
2023-01-21T01:09:09.549Z,72.01
2023-01-21T01:11:37.989Z,72.41
2023-01-21T01:14:07.730Z,71.81
2023-01-21T01:16:36.200Z,71.71
2023-01-21T01:19:05.394Z,71.64
2023-01-21T01:21:33.763Z,72.16
2023-01-21T01:24:03.351Z,71.48
2023-01-21T01:26:31.660Z,71.52
2023-01-21T01:29:00.581Z,71.19
2023-01-21T01:31:30.357Z,71.76
2023-01-21T01:33:59.110Z,71.10
2023-01-21T01:36:27.568Z,71.21
2023-01-21T01:38:56.405Z,69.80
2023-01-21T01:41:27.508Z,70.04
2023-01-21T01:43:59.020Z,70.60
2023-01-21T01:46:30.458Z,70.08
2023-01-21T01:49:03.271Z,70.09
2023-01-21T01:51:36.189Z,70.12
2023-01-21T01:54:05.908Z,70.05
2023-01-21T01:56:34.850Z,68.99
2023-01-21T01:59:05.500Z,69.23
2023-01-21T02:01:35.223Z,69.35
2023-01-21T02:04:05.385Z,68.37
2023-01-21T02:06:33.772Z,69.25
2023-01-21T02:09:02.164Z,68.28
2023-01-21T02:11:30.907Z,67.58
2023-01-21T02:14:00.495Z,67.91
2023-01-21T02:16:51.404Z,67.13
2023-01-21T02:19:48.402Z,67.32
2023-01-21T02:22:23.801Z,67.15
2023-01-21T02:25:26.189Z,67.26
2023-01-21T02:28:03.772Z,67.10
2023-01-21T02:30:46.220Z,66.71
2023-01-21T02:33:49.463Z,66.85
2023-01-21T02:36:38.917Z,66.51
2023-01-21T02:39:13.732Z,66.79
2023-01-21T02:41:47.084Z,66.72
2023-01-21T02:44:18.574Z,66.93
2023-01-21T02:46:51.917Z,66.17
2023-01-21T02:49:28.976Z,66.27
2023-01-21T02:51:57.365Z,66.28
2023-01-21T02:54:51.894Z,65.83
2023-01-21T02:57:26.148Z,66.29
2023-01-21T02:59:55.616Z,65.62
2023-01-21T03:02:36.761Z,65.85
2023-01-21T03:05:11.275Z,65.79
2023-01-21T03:07:44.044Z,65.27
2023-01-21T03:10:15.606Z,65.75
2023-01-21T03:12:48.015Z,65.79
2023-01-21T03:15:40.829Z,65.25
2023-01-21T03:18:13.016Z,64.51
2023-01-21T03:20:45.215Z,64.97
2023-01-21T03:23:16.831Z,63.82
2023-01-21T03:25:46.131Z,64.08
2023-01-21T03:28:18.669Z,64.53
2023-01-21T03:30:50.799Z,64.06
2023-01-21T03:33:19.770Z,63.93
2023-01-21T03:35:52.904Z,63.92
2023-01-21T03:38:25.986Z,64.14
2023-01-21T03:40:57.979Z,64.53
2023-01-21T03:43:26.675Z,64.44
2023-01-21T03:46:01.961Z,64.67
2023-01-21T03:48:38.052Z,64.70
2023-01-21T03:51:09.988Z,65.22
2023-01-21T03:53:38.489Z,64.84
2023-01-21T03:56:07.167Z,64.62
2023-01-21T03:58:35.506Z,63.77
2023-01-21T04:01:04.092Z,64.45
2023-01-21T04:03:32.438Z,63.98
2023-01-21T04:06:00.732Z,64.38
2023-01-21T04:08:30.433Z,65.30
2023-01-21T04:10:58.810Z,64.56
2023-01-21T04:13:27.088Z,64.62
2023-01-21T04:15:55.414Z,64.93
2023-01-21T04:18:23.814Z,64.88
2023-01-21T04:20:52.140Z,64.05
2023-01-21T04:23:20.431Z,64.97
2023-01-21T04:25:50.828Z,64.79
2023-01-21T04:28:19.431Z,65.16
2023-01-21T04:30:48.603Z,64.90
2023-01-21T04:33:17.355Z,64.29
2023-01-21T04:35:45.755Z,64.58
2023-01-21T04:38:16.099Z,64.83
2023-01-21T04:40:44.482Z,64.71
2023-01-21T04:43:14.247Z,63.97
2023-01-21T04:45:42.544Z,63.67
2023-01-21T04:48:10.908Z,63.92
2023-01-21T04:50:39.256Z,64.12
2023-01-21T04:53:07.577Z,63.70
2023-01-21T04:55:35.905Z,63.81
2023-01-21T04:58:04.323Z,63.46
2023-01-21T05:00:34.092Z,63.42
2023-01-21T05:03:02.526Z,63.53
2023-01-21T05:05:30.926Z,63.05
2023-01-21T05:07:59.291Z,62.86
2023-01-21T05:10:27.634Z,62.71
2023-01-21T05:12:56.005Z,63.55
2023-01-21T05:15:24.714Z,63.40
2023-01-21T05:17:56.717Z,62.92
2023-01-21T05:20:25.418Z,63.80
2023-01-21T05:22:53.715Z,63.32
2023-01-21T05:25:24.519Z,63.24
2023-01-21T05:27:53.878Z,63.65
2023-01-21T05:30:22.645Z,64.09
2023-01-21T05:32:52.111Z,64.19
2023-01-21T05:35:22.906Z,64.33
2023-01-21T05:37:51.350Z,64.37
2023-01-21T05:40:20.561Z,64.63
2023-01-21T05:42:49.239Z,64.15
2023-01-21T05:45:17.650Z,64.79
2023-01-21T05:47:45.993Z,64.64
2023-01-21T05:50:14.472Z,65.13
2023-01-21T05:52:44.230Z,64.85
2023-01-21T05:55:12.670Z,64.63
2023-01-21T05:57:41.259Z,64.86
2023-01-21T06:00:10.917Z,64.77
2023-01-21T06:02:39.419Z,64.87
2023-01-21T06:05:08.640Z,64.98
2023-01-21T06:07:40.048Z,64.76
2023-01-21T06:10:11.115Z,65.04
2023-01-21T06:12:40.882Z,65.38
2023-01-21T06:15:12.257Z,65.59
2023-01-21T06:17:41.351Z,64.94
2023-01-21T06:20:11.001Z,65.22
2023-01-21T06:22:39.436Z,65.19
2023-01-21T06:25:12.701Z,65.33
2023-01-21T06:27:44.337Z,65.05
2023-01-21T06:30:13.024Z,65.31
2023-01-21T06:32:44.335Z,64.96
2023-01-21T06:35:12.640Z,65.15
2023-01-21T06:37:42.937Z,64.96
2023-01-21T06:40:14.698Z,64.51
2023-01-21T06:42:43.107Z,64.95
2023-01-21T06:45:12.332Z,64.85
2023-01-21T06:47:41.746Z,64.85
2023-01-21T06:50:11.916Z,64.22
2023-01-21T06:52:44.229Z,64.80
2023-01-21T06:55:14.388Z,64.45
2023-01-21T06:57:43.634Z,64.53
2023-01-21T07:00:13.287Z,64.54
2023-01-21T07:02:44.285Z,64.21
2023-01-21T07:05:15.095Z,64.13
2023-01-21T07:07:44.968Z,64.55
2023-01-21T07:10:15.006Z,64.31
2023-01-21T07:12:43.681Z,64.06
2023-01-21T07:15:13.059Z,63.69
2023-01-21T07:17:41.406Z,63.22
2023-01-21T07:20:12.495Z,63.91
2023-01-21T07:22:43.651Z,63.73
2023-01-21T07:25:12.125Z,63.69
2023-01-21T07:27:43.659Z,63.69
2023-01-21T07:30:20.462Z,63.13
2023-01-21T07:32:50.800Z,63.56
2023-01-21T07:35:19.351Z,63.01
2023-01-21T07:37:47.879Z,63.59
2023-01-21T07:40:19.147Z,63.42
2023-01-21T07:42:53.957Z,63.02
2023-01-21T07:45:22.115Z,63.36
2023-01-21T07:47:52.638Z,63.04
2023-01-21T07:50:20.959Z,63.09
2023-01-21T07:52:54.556Z,62.71
2023-01-21T07:55:23.237Z,63.18
2023-01-21T07:57:51.666Z,62.04
2023-01-21T08:00:22.262Z,62.71
2023-01-21T08:02:54.049Z,62.64
2023-01-21T08:05:22.939Z,62.10
2023-01-21T08:07:52.688Z,62.34
2023-01-21T08:10:22.320Z,62.22
2023-01-21T08:12:50.753Z,61.57
2023-01-21T08:15:25.737Z,62.10
2023-01-21T08:17:54.199Z,61.78
2023-01-21T08:20:22.552Z,61.29
2023-01-21T08:22:54.958Z,61.23
2023-01-21T08:25:25.964Z,61.70
2023-01-21T08:27:54.386Z,61.83
2023-01-21T08:30:24.350Z,61.26
2023-01-21T08:32:52.782Z,60.92
2023-01-21T08:35:25.850Z,60.64
2023-01-21T08:37:58.717Z,61.17
2023-01-21T08:40:27.556Z,60.33
2023-01-21T08:42:59.679Z,60.90
2023-01-21T08:45:32.915Z,61.03
2023-01-21T08:48:06.411Z,60.49
2023-01-21T08:50:34.791Z,60.30
2023-01-21T08:53:03.201Z,59.85
2023-01-21T08:55:34.106Z,59.89
2023-01-21T08:58:02.501Z,60.32
2023-01-21T09:00:33.963Z,59.72
2023-01-21T09:03:05.116Z,59.33
2023-01-21T09:05:33.490Z,58.79
2023-01-21T09:08:01.956Z,59.47
2023-01-21T09:10:47.695Z,59.32
2023-01-21T09:13:16.570Z,58.72
2023-01-21T09:15:46.395Z,59.21
2023-01-21T09:18:14.783Z,58.93
2023-01-21T09:20:43.217Z,59.54
2023-01-21T09:23:25.488Z,59.54
2023-01-21T09:25:56.405Z,59.00
2023-01-21T09:28:24.908Z,58.66
2023-01-21T09:31:03.062Z,58.21
2023-01-21T09:33:36.273Z,57.94
2023-01-21T09:36:06.964Z,58.60
2023-01-21T09:38:35.734Z,58.13
2023-01-21T09:41:07.106Z,58.20
2023-01-21T09:43:40.634Z,58.29
2023-01-21T09:46:19.891Z,58.02
2023-01-21T09:48:50.992Z,57.70
2023-01-21T09:51:24.108Z,57.83
2023-01-21T09:53:57.165Z,58.29
2023-01-21T09:56:30.946Z,57.84
2023-01-21T09:59:07.695Z,58.33
2023-01-21T10:01:41.206Z,57.88
2023-01-21T10:04:30.495Z,58.33
2023-01-21T10:07:00.415Z,58.56
2023-01-21T10:09:53.169Z,58.36
2023-01-21T10:12:32.028Z,58.00
2023-01-21T10:15:18.169Z,57.88
2023-01-21T10:17:55.213Z,57.84
2023-01-21T10:20:26.907Z,58.28
2023-01-21T10:22:59.988Z,57.69
2023-01-21T10:25:32.306Z,57.56
2023-01-21T10:28:04.338Z,57.65
2023-01-21T10:30:37.423Z,57.68
2023-01-21T10:33:07.813Z,58.18
2023-01-21T10:35:52.286Z,57.70
2023-01-21T10:38:23.924Z,58.04
2023-01-21T10:40:58.450Z,58.07
2023-01-21T10:43:33.999Z,57.90
2023-01-21T10:46:08.215Z,57.82
2023-01-21T10:48:42.934Z,57.66
2023-01-21T10:51:19.323Z,57.61
2023-01-21T10:53:56.559Z,57.98
2023-01-21T10:56:35.533Z,57.70
2023-01-21T10:59:06.293Z,58.09
2023-01-21T11:01:37.719Z,58.04
2023-01-21T11:04:13.087Z,57.80
2023-01-21T11:06:44.257Z,57.93
2023-01-21T11:09:14.957Z,58.54
2023-01-21T11:11:43.392Z,58.01
2023-01-21T11:14:13.795Z,58.05
2023-01-21T11:16:47.255Z,57.58
2023-01-21T11:19:19.172Z,56.80
2023-01-21T11:22:02.756Z,57.23
2023-01-21T11:24:32.740Z,57.24
2023-01-21T11:27:04.651Z,57.27
2023-01-21T11:29:41.305Z,57.47
2023-01-21T11:32:18.739Z,57.81
2023-01-21T11:34:50.076Z,58.12
2023-01-21T11:37:25.604Z,58.16
2023-01-21T11:39:58.093Z,58.64
2023-01-21T11:42:27.049Z,58.13
2023-01-21T11:44:56.647Z,58.00
2023-01-21T11:47:35.878Z,57.98
2023-01-21T11:50:18.748Z,58.36
2023-01-21T11:52:47.359Z,57.88
2023-01-21T11:55:24.131Z,58.38
2023-01-21T11:57:54.099Z,57.92
2023-01-21T12:00:24.424Z,58.09
2023-01-21T12:02:58.144Z,58.68
2023-01-21T12:05:34.201Z,58.57
2023-01-21T12:08:04.247Z,58.31
2023-01-21T12:10:38.081Z,58.61
2023-01-21T12:13:21.141Z,58.90
2023-01-21T12:16:25.624Z,58.47
2023-01-21T12:19:19.838Z,58.50
2023-01-21T12:22:00.336Z,58.41
2023-01-21T12:24:42.299Z,58.99
2023-01-21T12:27:17.266Z,58.96
2023-01-21T12:29:58.864Z,59.14
2023-01-21T12:32:30.358Z,59.12
2023-01-21T12:35:01.556Z,59.37
2023-01-21T12:37:37.635Z,59.01
2023-01-21T12:40:15.865Z,59.31
2023-01-21T12:42:47.571Z,59.05
2023-01-21T12:45:20.578Z,59.45
2023-01-21T12:47:54.330Z,59.29
2023-01-21T12:50:31.752Z,58.99
2023-01-21T12:53:13.628Z,59.30
2023-01-21T12:55:59.856Z,59.09
2023-01-21T12:58:32.810Z,58.84
2023-01-21T13:01:04.337Z,59.18
2023-01-21T13:03:40.822Z,58.69
2023-01-21T13:06:12.013Z,59.36
2023-01-21T13:08:52.759Z,59.19
2023-01-21T13:11:27.211Z,59.77
2023-01-21T13:14:14.582Z,60.44
2023-01-21T13:16:46.794Z,61.00
2023-01-21T13:19:16.429Z,60.32
2023-01-21T13:21:49.142Z,59.23
2023-01-21T13:24:24.491Z,58.50
2023-01-21T13:27:03.616Z,58.37
2023-01-21T13:29:41.197Z,58.27
2023-01-21T13:32:25.697Z,58.84
2023-01-21T13:35:01.925Z,58.90
2023-01-21T13:37:37.209Z,58.54
2023-01-21T13:40:30.045Z,58.91
2023-01-21T13:43:09.346Z,59.11
2023-01-21T13:45:45.408Z,60.03
2023-01-21T13:48:37.902Z,60.00
2023-01-21T13:51:31.481Z,60.48
2023-01-21T13:54:14.812Z,60.92
2023-01-21T13:57:02.319Z,60.90
2023-01-21T13:59:34.987Z,61.10
2023-01-21T14:02:07.269Z,60.57
2023-01-21T14:04:40.129Z,60.76
2023-01-21T14:07:10.264Z,60.81
2023-01-21T14:09:43.702Z,61.09
2023-01-21T14:12:18.989Z,61.13
2023-01-21T14:15:02.571Z,61.20
2023-01-21T14:17:52.233Z,60.95
2023-01-21T14:20:50.160Z,60.78
2023-01-21T14:23:54.689Z,61.00
2023-01-21T14:26:46.104Z,61.09
2023-01-21T14:29:21.265Z,61.21
2023-01-21T14:31:52.396Z,61.31
2023-01-21T14:34:24.586Z,61.35
2023-01-21T14:36:57.493Z,61.59
2023-01-21T14:39:37.448Z,61.68
2023-01-21T14:42:13.020Z,61.11
2023-01-21T14:44:44.735Z,61.07
2023-01-21T14:47:23.235Z,60.21
2023-01-21T14:49:53.480Z,60.44
2023-01-21T14:52:23.250Z,59.85
2023-01-21T14:54:51.681Z,59.58
2023-01-21T14:57:27.101Z,60.70
2023-01-21T15:00:09.265Z,59.51
2023-01-21T15:02:42.401Z,59.19
2023-01-21T15:05:19.443Z,59.11
2023-01-21T15:07:50.907Z,59.04
2023-01-21T15:10:21.708Z,59.02
2023-01-21T15:12:53.065Z,58.28
2023-01-21T15:15:31.871Z,58.50
2023-01-21T15:18:22.783Z,59.41
2023-01-21T15:20:52.512Z,59.40
2023-01-21T15:23:29.206Z,58.66
2023-01-21T15:26:19.401Z,58.42
2023-01-21T15:28:48.848Z,58.56
2023-01-21T15:31:44.519Z,58.42
2023-01-21T15:34:15.552Z,58.70
2023-01-21T15:36:48.413Z,58.81
2023-01-21T15:39:18.319Z,58.86
2023-01-21T15:41:56.874Z,59.05
2023-01-21T15:44:40.100Z,59.30
2023-01-21T15:47:20.152Z,58.42
2023-01-21T15:50:03.691Z,58.98
2023-01-21T15:52:42.189Z,59.23
2023-01-21T15:55:31.167Z,59.32
2023-01-21T15:58:09.351Z,59.58
2023-01-21T16:00:44.047Z,60.00
2023-01-21T16:03:23.707Z,59.94
2023-01-21T16:06:00.827Z,60.32
2023-01-21T16:08:42.175Z,59.76
2023-01-21T16:11:25.029Z,59.74
2023-01-21T16:14:02.888Z,59.84
2023-01-21T16:16:41.887Z,60.07
2023-01-21T16:19:13.466Z,60.61
2023-01-21T16:21:44.819Z,60.70
2023-01-21T16:24:17.224Z,60.43
2023-01-21T16:26:45.864Z,60.69
2023-01-21T16:29:15.542Z,60.23
2023-01-21T16:31:48.595Z,60.73
2023-01-21T16:34:25.468Z,60.84
2023-01-21T16:36:56.710Z,60.73
2023-01-21T16:39:27.325Z,60.79
2023-01-21T16:42:03.863Z,61.22
2023-01-21T16:44:33.982Z,61.44
2023-01-21T16:47:02.755Z,61.72
2023-01-21T16:49:34.613Z,62.15
2023-01-21T16:52:03.717Z,62.02
2023-01-21T16:54:32.962Z,61.97
2023-01-21T16:57:02.679Z,62.24
2023-01-21T16:59:33.730Z,62.53
2023-01-21T17:02:02.521Z,62.68
2023-01-21T17:04:32.449Z,62.46
2023-01-21T17:07:00.808Z,62.73
2023-01-21T17:09:32.614Z,62.94
2023-01-21T17:12:08.447Z,62.58
2023-01-21T17:14:37.017Z,63.02
2023-01-21T17:17:08.795Z,62.95
2023-01-21T17:19:40.821Z,63.71
2023-01-21T17:22:15.007Z,63.13
2023-01-21T17:24:58.168Z,63.75
2023-01-21T17:27:29.354Z,63.62
2023-01-21T17:30:20.371Z,63.32
2023-01-21T17:32:55.514Z,63.75
2023-01-21T17:35:26.703Z,63.92
2023-01-21T17:37:56.678Z,63.82
2023-01-21T17:40:35.484Z,63.77
2023-01-21T17:43:15.625Z,63.70
2023-01-21T17:45:45.840Z,64.02
2023-01-21T17:48:26.322Z,64.01
2023-01-21T17:51:04.492Z,64.45
2023-01-21T17:53:32.909Z,64.64
2023-01-21T17:56:03.049Z,64.75
2023-01-21T17:58:49.633Z,64.42
2023-01-21T18:01:18.479Z,63.99
2023-01-21T18:03:47.302Z,64.48
2023-01-21T18:06:21.924Z,64.92
2023-01-21T18:08:52.927Z,64.81
2023-01-21T18:11:22.123Z,65.14
2023-01-21T18:13:51.550Z,64.91
2023-01-21T18:16:20.001Z,65.43
2023-01-21T18:18:52.685Z,65.42
2023-01-21T18:21:22.805Z,65.24
2023-01-21T18:23:51.482Z,64.71
2023-01-21T18:26:28.079Z,64.97
2023-01-21T18:28:56.410Z,64.56
2023-01-21T18:31:27.187Z,64.87
2023-01-21T18:33:55.754Z,64.76
2023-01-21T18:36:25.490Z,64.89
2023-01-21T18:38:53.820Z,64.80
2023-01-21T18:41:22.199Z,65.27
2023-01-21T18:43:50.624Z,64.99
2023-01-21T18:46:19.909Z,64.59
2023-01-21T18:48:50.043Z,64.31
2023-01-21T18:51:18.618Z,64.33
2023-01-21T18:53:48.356Z,64.39
2023-01-21T18:56:17.551Z,64.10
2023-01-21T18:58:47.650Z,64.56
2023-01-21T19:01:23.138Z,64.35
2023-01-21T19:03:54.631Z,64.55
2023-01-21T19:06:24.206Z,64.37
2023-01-21T19:08:55.211Z,64.73
2023-01-21T19:11:23.734Z,64.67
2023-01-21T19:13:52.095Z,64.01
2023-01-21T19:16:21.211Z,64.67
2023-01-21T19:18:50.111Z,64.63
2023-01-21T19:21:18.543Z,64.31
2023-01-21T19:23:47.103Z,64.67
2023-01-21T19:26:17.345Z,64.20
2023-01-21T19:28:45.742Z,64.04
2023-01-21T19:31:14.247Z,64.07
2023-01-21T19:33:45.649Z,64.24
2023-01-21T19:36:16.605Z,64.21
2023-01-21T19:38:51.596Z,64.46
2023-01-21T19:41:21.392Z,64.40
2023-01-21T19:43:49.707Z,63.81
2023-01-21T19:46:18.799Z,64.37
2023-01-21T19:48:50.097Z,64.23
2023-01-21T19:51:18.505Z,64.42
2023-01-21T19:53:49.266Z,64.55
2023-01-21T19:56:20.859Z,64.92
2023-01-21T19:58:50.704Z,64.69
2023-01-21T20:01:19.115Z,64.48
2023-01-21T20:03:59.318Z,63.88
2023-01-21T20:06:31.127Z,64.11
2023-01-21T20:09:01.263Z,64.27
2023-01-21T20:11:29.816Z,64.69
2023-01-21T20:13:59.565Z,64.95
2023-01-21T20:16:28.109Z,64.62
2023-01-21T20:19:02.225Z,64.45
2023-01-21T20:21:33.114Z,64.83
2023-01-21T20:24:01.466Z,65.10
2023-01-21T20:26:30.291Z,65.06
2023-01-21T20:29:02.533Z,65.23
2023-01-21T20:31:31.269Z,65.41
2023-01-21T20:33:59.670Z,65.71
2023-01-21T20:36:28.374Z,65.95
2023-01-21T20:38:57.158Z,65.86
2023-01-21T20:41:25.628Z,66.25
2023-01-21T20:43:53.997Z,66.61
2023-01-21T20:46:25.759Z,66.45
2023-01-21T20:48:54.245Z,66.58
2023-01-21T20:51:22.669Z,66.45
2023-01-21T20:53:51.147Z,66.46
2023-01-21T20:56:21.690Z,66.97
2023-01-21T20:58:50.114Z,67.18
2023-01-21T21:01:19.985Z,66.97
2023-01-21T21:03:50.239Z,67.19
2023-01-21T21:06:20.592Z,67.17
2023-01-21T21:08:49.134Z,67.13
2023-01-21T21:11:18.942Z,67.05
2023-01-21T21:13:50.547Z,67.07
2023-01-21T21:16:21.331Z,67.52
2023-01-21T21:18:51.508Z,67.33
2023-01-21T21:21:23.396Z,67.91
2023-01-21T21:23:52.796Z,68.00
2023-01-21T21:26:23.258Z,68.08
2023-01-21T21:28:55.044Z,68.15
2023-01-21T21:31:23.781Z,68.23
2023-01-21T21:33:53.786Z,67.83
2023-01-21T21:36:23.506Z,67.91
2023-01-21T21:38:55.728Z,68.20
2023-01-21T21:41:43.134Z,68.20
2023-01-21T21:44:11.951Z,68.25
2023-01-21T21:46:58.047Z,68.20
2023-01-21T21:49:28.531Z,68.40
2023-01-21T21:51:57.083Z,68.72
2023-01-21T21:54:25.635Z,68.90
2023-01-21T21:56:54.021Z,69.05
2023-01-21T21:59:22.607Z,69.35
2023-01-21T22:01:51.097Z,69.10
2023-01-21T22:04:21.325Z,69.20
2023-01-21T22:06:51.107Z,69.06
2023-01-21T22:09:19.473Z,69.04
2023-01-21T22:11:47.858Z,69.31
2023-01-21T22:14:16.500Z,69.36
2023-01-21T22:16:45.020Z,69.00
2023-01-21T22:19:13.549Z,69.26
2023-01-21T22:21:41.894Z,68.90
2023-01-21T22:24:11.917Z,68.83
2023-01-21T22:26:40.299Z,69.28
2023-01-21T22:29:08.672Z,69.35
2023-01-21T22:31:37.213Z,69.68
2023-01-21T22:34:05.628Z,69.97
2023-01-21T22:36:34.028Z,70.18
2023-01-21T22:39:02.546Z,70.54
2023-01-21T22:41:32.998Z,70.59
2023-01-21T22:44:01.380Z,70.83
2023-01-21T22:46:31.458Z,71.25
2023-01-21T22:49:00.057Z,71.25
2023-01-21T22:51:28.741Z,71.23
2023-01-21T22:54:02.288Z,71.49
2023-01-21T22:56:51.140Z,71.45
2023-01-21T22:59:27.611Z,71.20
2023-01-21T23:02:03.138Z,71.24
2023-01-21T23:04:47.422Z,71.70
2023-01-21T23:07:16.677Z,71.60
2023-01-21T23:09:49.012Z,71.39
2023-01-21T23:12:21.859Z,71.74
2023-01-21T23:14:50.182Z,71.62
2023-01-21T23:17:18.506Z,71.49
2023-01-21T23:19:46.808Z,72.27
2023-01-21T23:22:15.212Z,72.40
2023-01-21T23:24:43.598Z,72.82
2023-01-21T23:27:12.021Z,72.54
2023-01-21T23:29:41.711Z,72.55
2023-01-21T23:32:10.132Z,72.87
2023-01-21T23:34:38.462Z,72.76
2023-01-21T23:37:06.926Z,72.83
2023-01-21T23:39:35.316Z,72.47
2023-01-21T23:42:03.893Z,72.42
2023-01-21T23:44:32.243Z,72.75
2023-01-21T23:47:04.598Z,72.93
2023-01-21T23:49:34.908Z,72.93
2023-01-21T23:52:05.207Z,72.75
2023-01-21T23:54:33.558Z,72.87
2023-01-21T23:57:01.927Z,72.60
2023-01-21T23:59:30.311Z,72.06
